sensor_id;sensor_type;location;lat;lon;timestamp;temperature;humidity
31729;DHT22;18309;43.658;1.312;2022-10-31T00:01:36;19.50;99.90
31729;DHT22;18309;43.658;1.312;2022-10-31T00:04:03;19.50;99.90
31729;DHT22;18309;43.658;1.312;2022-10-31T00:06:29;19.50;99.90
31729;DHT22;18309;43.658;1.312;2022-10-31T00:09:00;19.50;99.90
31729;DHT22;18309;43.658;1.312;2022-10-31T00:11:26;19.50;99.90
31729;DHT22;18309;43.658;1.312;2022-10-31T00:13:53;19.50;99.90
31729;DHT22;18309;43.658;1.312;2022-10-31T00:16:23;19.50;99.90
31729;DHT22;18309;43.658;1.312;2022-10-31T00:18:54;19.50;99.90
31729;DHT22;18309;43.658;1.312;2022-10-31T00:21:21;19.50;99.90
31729;DHT22;18309;43.658;1.312;2022-10-31T00:23:47;19.50;99.90
31729;DHT22;18309;43.658;1.312;2022-10-31T00:26:13;19.60;99.90
31729;DHT22;18309;43.658;1.312;2022-10-31T00:28:39;19.60;99.90
31729;DHT22;18309;43.658;1.312;2022-10-31T00:31:08;19.60;99.90
31729;DHT22;18309;43.658;1.312;2022-10-31T00:33:35;19.60;99.90
31729;DHT22;18309;43.658;1.312;2022-10-31T00:36:02;19.60;99.90
31729;DHT22;18309;43.658;1.312;2022-10-31T00:38:28;19.60;99.90
31729;DHT22;18309;43.658;1.312;2022-10-31T00:40:54;19.60;99.90
31729;DHT22;18309;43.658;1.312;2022-10-31T00:43:20;19.60;99.90
31729;DHT22;18309;43.658;1.312;2022-10-31T00:45:46;19.60;99.90
31729;DHT22;18309;43.658;1.312;2022-10-31T00:48:12;19.60;99.90
31729;DHT22;18309;43.658;1.312;2022-10-31T00:50:38;19.60;99.90
31729;DHT22;18309;43.658;1.312;2022-10-31T00:53:03;19.60;99.90
31729;DHT22;18309;43.658;1.312;2022-10-31T00:55:29;19.60;99.90
31729;DHT22;18309;43.658;1.312;2022-10-31T00:57:55;19.70;99.90
31729;DHT22;18309;43.658;1.312;2022-10-31T01:00:21;19.70;99.90
31729;DHT22;18309;43.658;1.312;2022-10-31T01:02:46;19.70;99.90
31729;DHT22;18309;43.658;1.312;2022-10-31T01:05:12;19.70;99.90
31729;DHT22;18309;43.658;1.312;2022-10-31T01:07:40;19.60;99.90
31729;DHT22;18309;43.658;1.312;2022-10-31T01:10:07;19.70;99.90
31729;DHT22;18309;43.658;1.312;2022-10-31T01:12:41;19.70;99.90
31729;DHT22;18309;43.658;1.312;2022-10-31T01:15:08;19.70;99.90
31729;DHT22;18309;43.658;1.312;2022-10-31T01:17:34;19.70;99.90
31729;DHT22;18309;43.658;1.312;2022-10-31T01:20:00;19.60;99.90
31729;DHT22;18309;43.658;1.312;2022-10-31T01:22:25;19.60;99.90
31729;DHT22;18309;43.658;1.312;2022-10-31T01:24:51;19.60;99.90
31729;DHT22;18309;43.658;1.312;2022-10-31T01:27:17;19.60;99.90
31729;DHT22;18309;43.658;1.312;2022-10-31T01:29:42;19.60;99.90
31729;DHT22;18309;43.658;1.312;2022-10-31T01:32:08;19.60;99.90
31729;DHT22;18309;43.658;1.312;2022-10-31T01:34:34;19.60;99.90
31729;DHT22;18309;43.658;1.312;2022-10-31T01:37:00;19.60;99.90
31729;DHT22;18309;43.658;1.312;2022-10-31T01:39:26;19.50;99.90
31729;DHT22;18309;43.658;1.312;2022-10-31T01:41:53;19.50;99.90
31729;DHT22;18309;43.658;1.312;2022-10-31T01:49:38;19.50;99.90
31729;DHT22;18309;43.658;1.312;2022-10-31T01:54:39;19.50;99.90
31729;DHT22;18309;43.658;1.312;2022-10-31T01:57:08;19.50;99.90
31729;DHT22;18309;43.658;1.312;2022-10-31T01:59:40;19.50;99.90
31729;DHT22;18309;43.658;1.312;2022-10-31T02:02:07;19.50;99.90
31729;DHT22;18309;43.658;1.312;2022-10-31T02:04:34;19.50;99.90
31729;DHT22;18309;43.658;1.312;2022-10-31T02:07:06;19.50;99.90
31729;DHT22;18309;43.658;1.312;2022-10-31T02:09:34;19.50;99.90
31729;DHT22;18309;43.658;1.312;2022-10-31T02:12:02;19.40;99.90
31729;DHT22;18309;43.658;1.312;2022-10-31T02:14:30;19.40;99.90
31729;DHT22;18309;43.658;1.312;2022-10-31T02:16:57;19.40;99.90
31729;DHT22;18309;43.658;1.312;2022-10-31T02:22:30;19.40;99.90
31729;DHT22;18309;43.658;1.312;2022-10-31T02:28:18;19.40;99.90
31729;DHT22;18309;43.658;1.312;2022-10-31T02:33:42;19.40;99.90
31729;DHT22;18309;43.658;1.312;2022-10-31T02:49:33;19.40;99.90
31729;DHT22;18309;43.658;1.312;2022-10-31T02:51:59;19.40;99.90
31729;DHT22;18309;43.658;1.312;2022-10-31T02:54:27;19.40;99.90
31729;DHT22;18309;43.658;1.312;2022-10-31T02:57:03;19.40;99.90
31729;DHT22;18309;43.658;1.312;2022-10-31T02:59:32;19.30;99.90
31729;DHT22;18309;43.658;1.312;2022-10-31T03:04:57;19.30;99.90
31729;DHT22;18309;43.658;1.312;2022-10-31T03:15:49;19.30;99.90
31729;DHT22;18309;43.658;1.312;2022-10-31T03:18:28;19.20;99.90
31729;DHT22;18309;43.658;1.312;2022-10-31T03:23:24;19.20;99.90
31729;DHT22;18309;43.658;1.312;2022-10-31T03:25:52;19.20;99.90
31729;DHT22;18309;43.658;1.312;2022-10-31T03:28:23;19.10;99.90
31729;DHT22;18309;43.658;1.312;2022-10-31T03:30:52;19.20;99.90
31729;DHT22;18309;43.658;1.312;2022-10-31T03:33:24;19.10;99.90
31729;DHT22;18309;43.658;1.312;2022-10-31T03:35:53;19.20;99.90
31729;DHT22;18309;43.658;1.312;2022-10-31T03:38:22;19.10;99.90
31729;DHT22;18309;43.658;1.312;2022-10-31T03:40:48;19.10;99.90
31729;DHT22;18309;43.658;1.312;2022-10-31T03:43:19;19.10;99.90
31729;DHT22;18309;43.658;1.312;2022-10-31T03:45:47;19.10;99.90
31729;DHT22;18309;43.658;1.312;2022-10-31T03:48:14;19.10;99.90
31729;DHT22;18309;43.658;1.312;2022-10-31T03:56:53;19.00;99.90
31729;DHT22;18309;43.658;1.312;2022-10-31T03:59:28;19.00;99.90
31729;DHT22;18309;43.658;1.312;2022-10-31T04:01:58;19.00;99.90
31729;DHT22;18309;43.658;1.312;2022-10-31T04:04:26;19.00;99.90
31729;DHT22;18309;43.658;1.312;2022-10-31T04:06:53;19.00;99.90
31729;DHT22;18309;43.658;1.312;2022-10-31T04:09:21;19.00;99.90
31729;DHT22;18309;43.658;1.312;2022-10-31T04:11:53;18.90;99.90
31729;DHT22;18309;43.658;1.312;2022-10-31T04:14:21;18.90;99.90
31729;DHT22;18309;43.658;1.312;2022-10-31T04:16:49;18.90;99.90
31729;DHT22;18309;43.658;1.312;2022-10-31T04:19:15;18.90;99.90
31729;DHT22;18309;43.658;1.312;2022-10-31T04:21:40;18.90;99.90
31729;DHT22;18309;43.658;1.312;2022-10-31T04:24:09;18.80;99.90
31729;DHT22;18309;43.658;1.312;2022-10-31T04:26:34;18.80;99.90
31729;DHT22;18309;43.658;1.312;2022-10-31T04:29:00;18.80;99.90
31729;DHT22;18309;43.658;1.312;2022-10-31T04:31:26;18.80;99.90
31729;DHT22;18309;43.658;1.312;2022-10-31T04:33:52;18.80;99.90
31729;DHT22;18309;43.658;1.312;2022-10-31T04:36:18;18.80;99.90
31729;DHT22;18309;43.658;1.312;2022-10-31T04:38:43;18.80;99.90
31729;DHT22;18309;43.658;1.312;2022-10-31T04:41:09;18.80;99.90
31729;DHT22;18309;43.658;1.312;2022-10-31T04:43:35;18.80;99.90
31729;DHT22;18309;43.658;1.312;2022-10-31T04:46:01;18.80;99.90
31729;DHT22;18309;43.658;1.312;2022-10-31T04:48:26;18.80;99.90
31729;DHT22;18309;43.658;1.312;2022-10-31T04:50:52;18.70;99.90
31729;DHT22;18309;43.658;1.312;2022-10-31T04:53:18;18.70;99.90
31729;DHT22;18309;43.658;1.312;2022-10-31T04:55:43;18.70;99.90
31729;DHT22;18309;43.658;1.312;2022-10-31T04:58:09;18.70;99.90
31729;DHT22;18309;43.658;1.312;2022-10-31T05:00:34;18.70;99.90
31729;DHT22;18309;43.658;1.312;2022-10-31T05:03:00;18.70;99.90
31729;DHT22;18309;43.658;1.312;2022-10-31T05:05:31;18.70;99.90
31729;DHT22;18309;43.658;1.312;2022-10-31T05:07:56;18.70;99.90
31729;DHT22;18309;43.658;1.312;2022-10-31T05:10:25;18.60;99.90
31729;DHT22;18309;43.658;1.312;2022-10-31T05:12:56;18.60;99.90
31729;DHT22;18309;43.658;1.312;2022-10-31T05:15:24;18.50;99.90
31729;DHT22;18309;43.658;1.312;2022-10-31T05:17:50;18.50;99.90
31729;DHT22;18309;43.658;1.312;2022-10-31T05:20:18;18.50;99.90
31729;DHT22;18309;43.658;1.312;2022-10-31T05:22:49;18.40;99.90
31729;DHT22;18309;43.658;1.312;2022-10-31T05:25:16;18.40;99.90
31729;DHT22;18309;43.658;1.312;2022-10-31T05:27:44;18.40;99.90
31729;DHT22;18309;43.658;1.312;2022-10-31T05:30:12;18.30;99.90
31729;DHT22;18309;43.658;1.312;2022-10-31T05:32:43;18.30;99.90
31729;DHT22;18309;43.658;1.312;2022-10-31T05:35:15;18.20;99.90
31729;DHT22;18309;43.658;1.312;2022-10-31T05:37:41;18.20;99.90
31729;DHT22;18309;43.658;1.312;2022-10-31T05:40:08;18.20;99.90
31729;DHT22;18309;43.658;1.312;2022-10-31T05:42:35;18.10;99.90
31729;DHT22;18309;43.658;1.312;2022-10-31T05:45:01;18.10;99.90
31729;DHT22;18309;43.658;1.312;2022-10-31T05:47:27;18.00;99.90
31729;DHT22;18309;43.658;1.312;2022-10-31T05:49:52;18.00;99.90
31729;DHT22;18309;43.658;1.312;2022-10-31T05:52:18;18.00;99.90
31729;DHT22;18309;43.658;1.312;2022-10-31T05:54:44;18.00;99.90
31729;DHT22;18309;43.658;1.312;2022-10-31T05:57:10;17.90;99.90
31729;DHT22;18309;43.658;1.312;2022-10-31T05:59:35;17.90;99.90
31729;DHT22;18309;43.658;1.312;2022-10-31T06:02:01;17.90;99.90
31729;DHT22;18309;43.658;1.312;2022-10-31T06:04:27;17.90;99.90
31729;DHT22;18309;43.658;1.312;2022-10-31T06:06:52;17.80;99.90
31729;DHT22;18309;43.658;1.312;2022-10-31T06:09:18;17.80;99.90
31729;DHT22;18309;43.658;1.312;2022-10-31T06:11:44;17.80;99.90
31729;DHT22;18309;43.658;1.312;2022-10-31T06:14:09;17.70;99.90
31729;DHT22;18309;43.658;1.312;2022-10-31T06:16:35;17.70;99.90
31729;DHT22;18309;43.658;1.312;2022-10-31T06:19:01;17.70;99.90
31729;DHT22;18309;43.658;1.312;2022-10-31T06:21:27;17.60;99.90
31729;DHT22;18309;43.658;1.312;2022-10-31T06:23:52;17.60;99.90
31729;DHT22;18309;43.658;1.312;2022-10-31T06:26:18;17.60;99.90
31729;DHT22;18309;43.658;1.312;2022-10-31T06:28:44;17.60;99.90
31729;DHT22;18309;43.658;1.312;2022-10-31T06:31:09;17.60;99.90
31729;DHT22;18309;43.658;1.312;2022-10-31T06:33:35;17.50;99.90
31729;DHT22;18309;43.658;1.312;2022-10-31T06:36:01;17.60;99.90
31729;DHT22;18309;43.658;1.312;2022-10-31T06:38:28;17.50;99.90
31729;DHT22;18309;43.658;1.312;2022-10-31T06:40:54;17.50;99.90
31729;DHT22;18309;43.658;1.312;2022-10-31T06:43:20;17.50;99.90
31729;DHT22;18309;43.658;1.312;2022-10-31T06:45:46;17.50;99.90
31729;DHT22;18309;43.658;1.312;2022-10-31T06:48:12;17.40;99.90
31729;DHT22;18309;43.658;1.312;2022-10-31T06:50:38;17.50;99.90
31729;DHT22;18309;43.658;1.312;2022-10-31T06:53:03;17.50;99.90
31729;DHT22;18309;43.658;1.312;2022-10-31T06:55:29;17.20;99.90
31729;DHT22;18309;43.658;1.312;2022-10-31T06:57:56;16.70;99.90
31729;DHT22;18309;43.658;1.312;2022-10-31T07:00:23;16.30;99.90
31729;DHT22;18309;43.658;1.312;2022-10-31T07:03:06;16.10;99.90
31729;DHT22;18309;43.658;1.312;2022-10-31T07:05:32;16.10;99.90
31729;DHT22;18309;43.658;1.312;2022-10-31T07:08:04;16.00;99.90
31729;DHT22;18309;43.658;1.312;2022-10-31T07:10:33;16.00;99.90
31729;DHT22;18309;43.658;1.312;2022-10-31T07:13:04;15.80;99.90
31729;DHT22;18309;43.658;1.312;2022-10-31T07:15:34;15.80;99.90
31729;DHT22;18309;43.658;1.312;2022-10-31T07:18:01;15.70;99.90
31729;DHT22;18309;43.658;1.312;2022-10-31T07:20:27;15.80;99.90
31729;DHT22;18309;43.658;1.312;2022-10-31T07:22:53;15.80;99.90
31729;DHT22;18309;43.658;1.312;2022-10-31T07:25:19;15.90;99.90
31729;DHT22;18309;43.658;1.312;2022-10-31T07:27:45;15.90;99.90
31729;DHT22;18309;43.658;1.312;2022-10-31T07:30:12;15.90;99.90
31729;DHT22;18309;43.658;1.312;2022-10-31T07:32:42;15.80;99.90
31729;DHT22;18309;43.658;1.312;2022-10-31T07:35:11;15.80;99.90
31729;DHT22;18309;43.658;1.312;2022-10-31T07:37:37;15.70;99.90
31729;DHT22;18309;43.658;1.312;2022-10-31T07:40:03;15.60;99.90
31729;DHT22;18309;43.658;1.312;2022-10-31T07:45:07;15.70;99.90
31729;DHT22;18309;43.658;1.312;2022-10-31T07:47:40;15.70;99.90
31729;DHT22;18309;43.658;1.312;2022-10-31T07:50:07;15.80;99.90
31729;DHT22;18309;43.658;1.312;2022-10-31T07:52:33;15.70;99.90
31729;DHT22;18309;43.658;1.312;2022-10-31T07:54:59;15.80;99.90
31729;DHT22;18309;43.658;1.312;2022-10-31T07:57:25;15.90;99.90
31729;DHT22;18309;43.658;1.312;2022-10-31T07:59:50;16.10;99.90
31729;DHT22;18309;43.658;1.312;2022-10-31T08:02:17;16.30;99.90
31729;DHT22;18309;43.658;1.312;2022-10-31T08:04:43;16.50;99.90
31729;DHT22;18309;43.658;1.312;2022-10-31T08:07:09;17.00;99.90
31729;DHT22;18309;43.658;1.312;2022-10-31T08:09:34;17.20;99.90
31729;DHT22;18309;43.658;1.312;2022-10-31T08:12:00;17.40;99.90
31729;DHT22;18309;43.658;1.312;2022-10-31T08:14:27;17.60;99.90
31729;DHT22;18309;43.658;1.312;2022-10-31T08:16:53;17.70;99.90
31729;DHT22;18309;43.658;1.312;2022-10-31T08:19:19;17.80;99.90
31729;DHT22;18309;43.658;1.312;2022-10-31T08:21:45;17.80;99.90
31729;DHT22;18309;43.658;1.312;2022-10-31T08:24:11;18.00;99.90
31729;DHT22;18309;43.658;1.312;2022-10-31T08:26:39;18.20;99.90
31729;DHT22;18309;43.658;1.312;2022-10-31T08:29:05;18.30;99.90
31729;DHT22;18309;43.658;1.312;2022-10-31T08:31:31;18.50;99.90
31729;DHT22;18309;43.658;1.312;2022-10-31T08:33:57;18.70;99.90
31729;DHT22;18309;43.658;1.312;2022-10-31T08:36:22;18.80;99.90
31729;DHT22;18309;43.658;1.312;2022-10-31T08:38:48;19.10;99.90
31729;DHT22;18309;43.658;1.312;2022-10-31T08:41:14;19.30;99.90
31729;DHT22;18309;43.658;1.312;2022-10-31T08:43:40;19.50;99.90
31729;DHT22;18309;43.658;1.312;2022-10-31T08:46:05;19.60;99.90
31729;DHT22;18309;43.658;1.312;2022-10-31T08:48:31;19.70;99.90
31729;DHT22;18309;43.658;1.312;2022-10-31T08:50:58;19.90;99.90
31729;DHT22;18309;43.658;1.312;2022-10-31T08:53:25;20.10;99.90
31729;DHT22;18309;43.658;1.312;2022-10-31T08:55:53;20.10;99.90
31729;DHT22;18309;43.658;1.312;2022-10-31T08:58:19;20.20;99.90
31729;DHT22;18309;43.658;1.312;2022-10-31T09:00:47;20.20;99.90
31729;DHT22;18309;43.658;1.312;2022-10-31T09:03:21;20.20;99.90
31729;DHT22;18309;43.658;1.312;2022-10-31T09:05:47;20.20;99.90
31729;DHT22;18309;43.658;1.312;2022-10-31T09:08:13;20.20;99.90
31729;DHT22;18309;43.658;1.312;2022-10-31T09:10:39;20.20;99.90
31729;DHT22;18309;43.658;1.312;2022-10-31T09:13:08;20.20;99.90
31729;DHT22;18309;43.658;1.312;2022-10-31T09:15:36;20.20;99.90
31729;DHT22;18309;43.658;1.312;2022-10-31T09:18:04;20.30;99.90
31729;DHT22;18309;43.658;1.312;2022-10-31T09:20:30;20.30;99.90
31729;DHT22;18309;43.658;1.312;2022-10-31T09:23:02;20.30;99.90
31729;DHT22;18309;43.658;1.312;2022-10-31T09:25:28;20.20;99.90
31729;DHT22;18309;43.658;1.312;2022-10-31T09:27:57;20.20;99.90
31729;DHT22;18309;43.658;1.312;2022-10-31T09:30:27;20.30;99.90
31729;DHT22;18309;43.658;1.312;2022-10-31T09:33:02;20.60;99.90
31729;DHT22;18309;43.658;1.312;2022-10-31T09:35:28;20.70;99.90
31729;DHT22;18309;43.658;1.312;2022-10-31T09:37:58;20.70;99.90
31729;DHT22;18309;43.658;1.312;2022-10-31T09:41:07;20.80;99.90
31729;DHT22;18309;43.658;1.312;2022-10-31T09:51:50;21.20;99.40
31729;DHT22;18309;43.658;1.312;2022-10-31T09:54:57;21.40;99.40
31729;DHT22;18309;43.658;1.312;2022-10-31T09:57:18;21.40;98.90
31729;DHT22;18309;43.658;1.312;2022-10-31T09:59:46;21.60;98.80
31729;DHT22;18309;43.658;1.312;2022-10-31T10:02:16;21.70;98.40
31729;DHT22;18309;43.658;1.312;2022-10-31T10:07:37;22.20;97.30
31729;DHT22;18309;43.658;1.312;2022-10-31T10:10:38;22.30;97.10
31729;DHT22;18309;43.658;1.312;2022-10-31T10:13:21;22.40;96.90
31729;DHT22;18309;43.658;1.312;2022-10-31T10:24:30;23.00;95.50
31729;DHT22;18309;43.658;1.312;2022-10-31T10:30:04;22.90;95.10
31729;DHT22;18309;43.658;1.312;2022-10-31T10:32:44;23.10;94.90
31729;DHT22;18309;43.658;1.312;2022-10-31T10:37:52;23.30;94.20
31729;DHT22;18309;43.658;1.312;2022-10-31T10:40:23;23.10;94.20
31729;DHT22;18309;43.658;1.312;2022-10-31T10:43:19;23.40;94.20
31729;DHT22;18309;43.658;1.312;2022-10-31T10:49:06;23.90;93.50
31729;DHT22;18309;43.658;1.312;2022-10-31T10:51:44;23.90;92.70
31729;DHT22;18309;43.658;1.312;2022-10-31T10:59:53;24.50;92.10
31729;DHT22;18309;43.658;1.312;2022-10-31T11:02:25;24.40;92.40
31729;DHT22;18309;43.658;1.312;2022-10-31T11:04:54;24.50;91.70
31729;DHT22;18309;43.658;1.312;2022-10-31T11:07:20;24.30;91.90
31729;DHT22;18309;43.658;1.312;2022-10-31T11:09:46;24.70;91.40
31729;DHT22;18309;43.658;1.312;2022-10-31T11:12:22;24.90;90.80
31729;DHT22;18309;43.658;1.312;2022-10-31T11:14:55;24.80;90.60
31729;DHT22;18309;43.658;1.312;2022-10-31T11:17:40;24.90;90.30
31729;DHT22;18309;43.658;1.312;2022-10-31T11:22:38;25.20;90.20
31729;DHT22;18309;43.658;1.312;2022-10-31T11:30:26;25.10;90.30
31729;DHT22;18309;43.658;1.312;2022-10-31T11:32:52;25.00;89.70
31729;DHT22;18309;43.658;1.312;2022-10-31T11:35:20;24.90;89.70
31729;DHT22;18309;43.658;1.312;2022-10-31T11:37:47;25.00;90.10
31729;DHT22;18309;43.658;1.312;2022-10-31T11:40:22;24.90;90.00
31729;DHT22;18309;43.658;1.312;2022-10-31T11:42:52;25.10;90.10
31729;DHT22;18309;43.658;1.312;2022-10-31T11:47:51;25.50;89.40
31729;DHT22;18309;43.658;1.312;2022-10-31T11:50:39;25.50;89.00
31729;DHT22;18309;43.658;1.312;2022-10-31T11:53:17;25.40;88.70
31729;DHT22;18309;43.658;1.312;2022-10-31T11:55:44;25.50;88.80
31729;DHT22;18309;43.658;1.312;2022-10-31T11:58:25;26.10;88.10
31729;DHT22;18309;43.658;1.312;2022-10-31T12:00:54;26.50;86.80
31729;DHT22;18309;43.658;1.312;2022-10-31T12:06:09;26.40;85.00
31729;DHT22;18309;43.658;1.312;2022-10-31T12:08:39;26.80;83.90
31729;DHT22;18309;43.658;1.312;2022-10-31T12:16:58;32.30;67.80
31729;DHT22;18309;43.658;1.312;2022-10-31T12:19:47;30.30;73.30
31729;DHT22;18309;43.658;1.312;2022-10-31T12:22:30;30.10;73.00
31729;DHT22;18309;43.658;1.312;2022-10-31T12:25:12;28.40;78.70
31729;DHT22;18309;43.658;1.312;2022-10-31T12:41:06;31.60;66.80
31729;DHT22;18309;43.658;1.312;2022-10-31T12:52:04;30.90;67.60
31729;DHT22;18309;43.658;1.312;2022-10-31T12:54:43;31.60;67.90
31729;DHT22;18309;43.658;1.312;2022-10-31T12:57:29;31.10;67.50
31729;DHT22;18309;43.658;1.312;2022-10-31T13:00:07;29.80;72.70
31729;DHT22;18309;43.658;1.312;2022-10-31T13:05:44;30.40;69.50
31729;DHT22;18309;43.658;1.312;2022-10-31T13:08:18;29.10;73.80
31729;DHT22;18309;43.658;1.312;2022-10-31T13:10:49;28.80;75.40
31729;DHT22;18309;43.658;1.312;2022-10-31T13:13:21;29.00;75.10
31729;DHT22;18309;43.658;1.312;2022-10-31T13:15:56;29.10;74.60
31729;DHT22;18309;43.658;1.312;2022-10-31T13:18:37;28.60;75.40
31729;DHT22;18309;43.658;1.312;2022-10-31T13:21:27;28.30;77.20
31729;DHT22;18309;43.658;1.312;2022-10-31T13:23:58;27.90;78.10
31729;DHT22;18309;43.658;1.312;2022-10-31T13:29:15;26.80;81.30
31729;DHT22;18309;43.658;1.312;2022-10-31T13:31:43;26.60;83.00
31729;DHT22;18309;43.658;1.312;2022-10-31T13:34:33;26.20;83.50
31729;DHT22;18309;43.658;1.312;2022-10-31T13:37:34;25.60;84.70
31729;DHT22;18309;43.658;1.312;2022-10-31T13:42:54;25.20;87.00
31729;DHT22;18309;43.658;1.312;2022-10-31T13:45:23;25.00;87.10
31729;DHT22;18309;43.658;1.312;2022-10-31T13:50:27;24.70;88.30
31729;DHT22;18309;43.658;1.312;2022-10-31T13:56:12;24.30;89.80
31729;DHT22;18309;43.658;1.312;2022-10-31T13:58:54;24.30;90.00
31729;DHT22;18309;43.658;1.312;2022-10-31T14:01:22;24.30;90.20
31729;DHT22;18309;43.658;1.312;2022-10-31T14:04:06;24.10;90.20
31729;DHT22;18309;43.658;1.312;2022-10-31T14:06:44;24.00;90.70
31729;DHT22;18309;43.658;1.312;2022-10-31T14:12:14;23.90;90.80
31729;DHT22;18309;43.658;1.312;2022-10-31T14:14:54;23.80;90.60
31729;DHT22;18309;43.658;1.312;2022-10-31T14:17:50;23.60;90.80
31729;DHT22;18309;43.658;1.312;2022-10-31T14:22:43;23.50;91.10
31729;DHT22;18309;43.658;1.312;2022-10-31T14:25:28;23.40;91.30
31729;DHT22;18309;43.658;1.312;2022-10-31T14:27:55;23.40;91.40
31729;DHT22;18309;43.658;1.312;2022-10-31T14:30:24;23.30;91.50
31729;DHT22;18309;43.658;1.312;2022-10-31T14:33:02;23.20;91.60
31729;DHT22;18309;43.658;1.312;2022-10-31T14:35:51;23.10;91.50
31729;DHT22;18309;43.658;1.312;2022-10-31T14:38:37;23.10;91.60
31729;DHT22;18309;43.658;1.312;2022-10-31T14:41:37;23.10;91.80
31729;DHT22;18309;43.658;1.312;2022-10-31T14:52:57;22.90;91.90
31729;DHT22;18309;43.658;1.312;2022-10-31T14:55:26;22.80;92.30
31729;DHT22;18309;43.658;1.312;2022-10-31T14:58:04;22.80;91.90
31729;DHT22;18309;43.658;1.312;2022-10-31T15:00:32;22.70;92.10
31729;DHT22;18309;43.658;1.312;2022-10-31T15:03:14;22.70;92.20
31729;DHT22;18309;43.658;1.312;2022-10-31T15:05:46;22.60;92.30
31729;DHT22;18309;43.658;1.312;2022-10-31T15:08:29;22.60;92.40
31729;DHT22;18309;43.658;1.312;2022-10-31T15:10:56;22.50;92.50
31729;DHT22;18309;43.658;1.312;2022-10-31T15:13:22;22.50;92.50
31729;DHT22;18309;43.658;1.312;2022-10-31T15:15:49;22.50;92.80
31729;DHT22;18309;43.658;1.312;2022-10-31T15:18:22;22.40;92.80
31729;DHT22;18309;43.658;1.312;2022-10-31T15:20:50;22.40;93.00
31729;DHT22;18309;43.658;1.312;2022-10-31T15:23:25;22.30;93.10
31729;DHT22;18309;43.658;1.312;2022-10-31T15:25:58;22.30;93.40
31729;DHT22;18309;43.658;1.312;2022-10-31T15:28:25;22.20;93.50
31729;DHT22;18309;43.658;1.312;2022-10-31T15:31:00;22.10;93.60
31729;DHT22;18309;43.658;1.312;2022-10-31T15:33:31;22.10;93.70
31729;DHT22;18309;43.658;1.312;2022-10-31T15:35:59;22.10;93.90
31729;DHT22;18309;43.658;1.312;2022-10-31T15:38:26;22.10;94.00
31729;DHT22;18309;43.658;1.312;2022-10-31T15:41:22;22.00;94.10
31729;DHT22;18309;43.658;1.312;2022-10-31T15:43:49;22.00;94.30
31729;DHT22;18309;43.658;1.312;2022-10-31T15:46:15;22.00;94.40
31729;DHT22;18309;43.658;1.312;2022-10-31T15:48:45;21.90;94.40
31729;DHT22;18309;43.658;1.312;2022-10-31T15:51:11;21.90;94.50
31729;DHT22;18309;43.658;1.312;2022-10-31T15:53:50;21.80;94.40
31729;DHT22;18309;43.658;1.312;2022-10-31T15:56:31;21.80;94.50
31729;DHT22;18309;43.658;1.312;2022-10-31T15:58:58;21.80;94.50
31729;DHT22;18309;43.658;1.312;2022-10-31T16:01:28;21.80;94.60
31729;DHT22;18309;43.658;1.312;2022-10-31T16:04:24;21.80;94.70
31729;DHT22;18309;43.658;1.312;2022-10-31T16:07:16;21.80;94.70
31729;DHT22;18309;43.658;1.312;2022-10-31T16:12:23;21.80;94.60
31729;DHT22;18309;43.658;1.312;2022-10-31T16:14:51;21.80;94.70
31729;DHT22;18309;43.658;1.312;2022-10-31T16:17:20;21.80;94.80
31729;DHT22;18309;43.658;1.312;2022-10-31T16:20:02;21.70;95.00
31729;DHT22;18309;43.658;1.312;2022-10-31T16:22:31;21.60;95.10
31729;DHT22;18309;43.658;1.312;2022-10-31T16:27:35;21.50;95.30
31729;DHT22;18309;43.658;1.312;2022-10-31T16:30:03;21.50;95.50
31729;DHT22;18309;43.658;1.312;2022-10-31T16:35:28;21.40;95.60
31729;DHT22;18309;43.658;1.312;2022-10-31T16:37:57;21.40;95.70
31729;DHT22;18309;43.658;1.312;2022-10-31T16:40:23;21.40;95.70
31729;DHT22;18309;43.658;1.312;2022-10-31T16:42:49;21.30;95.70
31729;DHT22;18309;43.658;1.312;2022-10-31T16:45:20;21.30;96.20
31729;DHT22;18309;43.658;1.312;2022-10-31T16:47:46;21.20;96.50
31729;DHT22;18309;43.658;1.312;2022-10-31T16:50:19;21.10;96.60
31729;DHT22;18309;43.658;1.312;2022-10-31T16:52:45;21.10;96.60
31729;DHT22;18309;43.658;1.312;2022-10-31T16:55:16;21.00;96.90
31729;DHT22;18309;43.658;1.312;2022-10-31T16:57:43;21.00;97.10
31729;DHT22;18309;43.658;1.312;2022-10-31T17:00:18;20.90;97.50
31729;DHT22;18309;43.658;1.312;2022-10-31T17:02:45;20.90;97.90
31729;DHT22;18309;43.658;1.312;2022-10-31T17:05:15;20.80;98.30
31729;DHT22;18309;43.658;1.312;2022-10-31T17:07:42;20.80;98.60
31729;DHT22;18309;43.658;1.312;2022-10-31T17:10:08;20.70;99.00
31729;DHT22;18309;43.658;1.312;2022-10-31T17:12:35;20.70;99.70
31729;DHT22;18309;43.658;1.312;2022-10-31T17:15:02;20.60;99.30
31729;DHT22;18309;43.658;1.312;2022-10-31T17:17:28;20.60;99.30
31729;DHT22;18309;43.658;1.312;2022-10-31T17:19:53;20.60;99.60
31729;DHT22;18309;43.658;1.312;2022-10-31T17:22:19;20.50;99.70
31729;DHT22;18309;43.658;1.312;2022-10-31T17:24:45;20.50;99.90
31729;DHT22;18309;43.658;1.312;2022-10-31T17:27:10;20.50;99.90
31729;DHT22;18309;43.658;1.312;2022-10-31T17:29:36;20.50;99.90
31729;DHT22;18309;43.658;1.312;2022-10-31T17:32:02;20.40;99.90
31729;DHT22;18309;43.658;1.312;2022-10-31T17:34:29;20.40;99.90
31729;DHT22;18309;43.658;1.312;2022-10-31T17:36:55;20.40;99.90
31729;DHT22;18309;43.658;1.312;2022-10-31T17:39:21;20.30;99.90
31729;DHT22;18309;43.658;1.312;2022-10-31T17:41:50;20.30;99.90
31729;DHT22;18309;43.658;1.312;2022-10-31T17:44:17;20.20;99.90
31729;DHT22;18309;43.658;1.312;2022-10-31T17:46:43;20.20;99.90
31729;DHT22;18309;43.658;1.312;2022-10-31T17:49:15;20.20;99.90
31729;DHT22;18309;43.658;1.312;2022-10-31T17:51:40;20.10;99.90
31729;DHT22;18309;43.658;1.312;2022-10-31T17:54:06;20.10;99.90
31729;DHT22;18309;43.658;1.312;2022-10-31T17:56:33;20.00;99.90
31729;DHT22;18309;43.658;1.312;2022-10-31T17:59:00;20.00;99.90
31729;DHT22;18309;43.658;1.312;2022-10-31T18:01:26;19.90;99.90
31729;DHT22;18309;43.658;1.312;2022-10-31T18:03:51;19.90;99.90
31729;DHT22;18309;43.658;1.312;2022-10-31T18:06:22;19.90;99.90
31729;DHT22;18309;43.658;1.312;2022-10-31T18:08:51;19.90;99.90
31729;DHT22;18309;43.658;1.312;2022-10-31T18:11:20;19.90;99.90
31729;DHT22;18309;43.658;1.312;2022-10-31T18:13:46;19.80;99.90
31729;DHT22;18309;43.658;1.312;2022-10-31T18:16:14;19.80;99.90
31729;DHT22;18309;43.658;1.312;2022-10-31T18:18:40;19.80;99.90
31729;DHT22;18309;43.658;1.312;2022-10-31T18:21:06;19.80;99.90
31729;DHT22;18309;43.658;1.312;2022-10-31T18:23:32;19.80;99.90
31729;DHT22;18309;43.658;1.312;2022-10-31T18:25:58;19.80;99.90
31729;DHT22;18309;43.658;1.312;2022-10-31T18:28:24;19.80;99.90
31729;DHT22;18309;43.658;1.312;2022-10-31T18:30:50;19.70;99.90